Latest Coastal Weather Observations for Rundle Island

IDQ60701

Issued at 2:21 pm EST Tuesday 26 May 2020 (issued every 10 minutes, with the page automatically refreshed every 10 minutes)

About coastal observations | Map of coastal stations | Coastal observations for QLD | Marine services | Other Formats
Station Details ID: 039322 Name: RUNDLE ISLAND Lat: -23.53 Lon: 151.28 Height: 19.8 m
Data from the previous 72 hours. | See also: Recent months at Rundle Island
Date/Time
EST
Wind Sea
Height
m
Swell Vis
km
Cloud Weather Temp
°C
Press
hPa
Rain since
9am
mm
Dir  Spd
kts
Gust
kts
Height
m
Period
s
Dir
26/02:00pm NE 4 5 - - - - - - - 21.9 1017.9 -
26/01:30pm ENE 5 6 - - - - - - - 21.3 1018.1 -
26/01:00pm E 6 8 - - - - - - - 20.3 1018.2 -
26/12:30pm E 6 7 - - - - - - - 20.5 1018.7 -
26/12:00pm ESE 5 7 - - - - - - - 19.8 1019.2 -
26/11:30am SE 5 6 - - - - - - - 19.4 1019.4 -
26/11:00am SSE 6 8 - - - - - - - 18.9 1019.7 -
26/10:30am SSE 6 8 - - - - - - - 19.5 1020.0 -
26/10:00am S 6 8 - - - - - - - 19.3 1020.1 -
26/09:30am SSW 9 11 - - - - - - - 18.8 1020.0 -
26/09:00am SSW 12 13 - - - - - - - 17.9 1019.7 -
26/08:30am SSW 13 15 - - - - - - - 17.7 1019.6 -
26/08:00am SSW 13 15 - - - - - - - 17.6 1019.4 -
26/07:30am SSW 15 16 - - - - - - - 17.4 1019.2 -
26/07:00am SSW 13 14 - - - - - - - 17.4 1019.0 -
26/06:30am SSW 13 15 - - - - - - - 17.4 1018.7 -
26/06:00am SSW 10 14 - - - - - - - 17.3 1018.3 -
26/05:30am SSW 11 13 - - - - - - - 17.5 1017.8 -
26/05:00am SSW 9 11 - - - - - - - 17.3 1017.8 -
26/04:30am SSW 13 16 - - - - - - - 17.6 1017.6 -
26/04:00am SSW 12 15 - - - - - - - 17.8 1017.5 -
26/03:30am SSW 9 10 - - - - - - - 17.4 1017.3 -
26/03:00am SW 8 10 - - - - - - - 17.3 1017.3 -
26/02:30am WSW 9 11 - - - - - - - 17.3 1017.4 -
26/02:00am WSW 10 12 - - - - - - - 17.1 1017.7 -
26/01:30am WSW 10 12 - - - - - - - 16.8 1017.8 -
26/01:00am WSW 12 14 - - - - - - - 16.8 1017.9 -
26/12:30am W 12 14 - - - - - - - 17.5 1017.8 -
26/12:00am WNW 11 13 - - - - - - - 18.1 1017.7 -
 
Date/Time
EST
Wind Sea
Height
m
Swell Vis
km
Cloud Weather Temp
°C
Press
hPa
Rain since
9am
mm
Dir  Spd
kts
Gust
kts
Height
m
Period
s
Dir
25/11:30pm WNW 11 13 - - - - - - - 18.3 1017.8 -
25/11:00pm NW 11 13 - - - - - - - 19.0 1017.9 -
25/10:30pm NW 11 13 - - - - - - - 19.4 1017.9 -
25/10:00pm NW 14 17 - - - - - - - 19.5 1017.8 -
25/09:30pm NW 12 14 - - - - - - - 19.7 1017.9 -
25/09:00pm NW 13 15 - - - - - - - 19.7 1017.7 -
25/08:30pm NNW 12 14 - - - - - - - 19.7 1017.6 -
25/08:00pm NNW 12 14 - - - - - - - 19.6 1017.5 -
25/07:30pm NNW 11 13 - - - - - - - 19.7 1017.1 -
25/07:00pm NNW 11 13 - - - - - - - 19.5 1016.8 -
25/06:30pm N 10 12 - - - - - - - 19.4 1016.3 -
25/06:00pm N 10 12 - - - - - - - 19.3 1015.9 -
25/05:30pm N 10 12 - - - - - - - 19.2 1015.6 -
25/05:00pm N 10 12 - - - - - - - 19.1 1015.4 -
25/04:30pm N 10 12 - - - - - - - 19.2 1015.4 -
25/04:00pm N 11 13 - - - - - - - 18.8 1015.4 -
25/03:30pm N 11 13 - - - - - - - 18.6 1015.2 -
25/03:00pm NNW 11 13 - - - - - - - 18.6 1015.0 -
25/02:30pm NNW 11 13 - - - - - - - 18.5 1015.3 -
25/02:00pm NNW 10 13 - - - - - - - 18.4 1015.5 -
25/01:30pm NNW 9 12 - - - - - - - 18.4 1015.7 -
25/01:00pm N 8 10 - - - - - - - 18.0 1016.0 -
25/12:30pm NNW 7 8 - - - - - - - 18.1 1016.2 -
25/12:00pm N 3 5 - - - - - - - 18.5 1016.2 -
25/11:30am NNW 2 3 - - - - - - - 18.3 1016.6 -
25/11:00am CALM 0 1 - - - - - - - 20.0 1016.7 -
25/10:30am SSW 4 5 - - - - - - - 17.6 1017.1 -
25/10:00am SW 5 6 - - - - - - - 16.6 1017.3 -
25/09:30am SW 5 7 - - - - - - - 16.3 1017.4 -
25/09:00am WSW 6 8 - - - - - - - 15.5 1017.3 -
25/08:30am WSW 8 9 - - - - - - - 15.2 1017.2 -
25/08:00am WSW 9 10 - - - - - - - 14.8 1016.9 -
25/07:30am WSW 9 11 - - - - - - - 14.5 1016.9 -
25/07:00am WSW 8 10 - - - - - - - 14.2 1016.5 -
25/06:30am WSW 7 9 - - - - - - - 14.4 1016.3 -
25/06:00am SW 9 13 - - - - - - - 14.5 1015.8 -
25/05:30am SW 10 13 - - - - - - - 14.2 1015.6 -
25/05:00am WSW 12 15 - - - - - - - 14.4 1015.2 -
25/04:30am WSW 14 16 - - - - - - - 14.6 1015.0 -
25/04:00am WSW 12 15 - - - - - - - 14.1 1014.9 -
25/03:30am WSW 11 14 - - - - - - - 14.1 1015.1 -
25/03:00am W 12 14 - - - - - - - 14.7 1015.1 -
25/02:30am W 12 13 - - - - - - - 15.2 1015.4 -
25/02:00am W 12 13 - - - - - - - 14.8 1015.4 -
25/01:30am WSW 12 14 - - - - - - - 15.4 1015.5 -
25/01:00am W 12 14 - - - - - - - 15.9 1015.6 -
25/12:30am W 10 11 - - - - - - - 16.6 1015.9 -
25/12:00am W 9 10 - - - - - - - 16.9 1015.9 -
 
Date/Time
EST
Wind Sea
Height
m
Swell Vis
km
Cloud Weather Temp
°C
Press
hPa
Rain since
9am
mm
Dir  Spd
kts
Gust
kts
Height
m
Period
s
Dir
24/11:30pm WNW 9 10 - - - - - - - 17.2 1016.1 -
24/11:00pm NW 9 10 - - - - - - - 17.4 1016.3 -
24/10:30pm NW 7 8 - - - - - - - 17.5 1016.4 -
24/10:00pm WNW 6 8 - - - - - - - 17.2 1016.5 -
24/09:30pm W 7 8 - - - - - - - 17.3 1016.0 -
24/09:00pm WNW 6 8 - - - - - - - 17.1 1015.9 -
24/08:30pm W 4 5 - - - - - - - 17.2 1015.7 -
24/08:00pm WSW 5 8 - - - - - - - 17.2 1015.2 -
24/07:30pm WSW 6 8 - - - - - - - 17.5 1014.9 -
24/07:00pm WSW 6 8 - - - - - - - 17.4 1014.3 -
24/06:30pm WSW 5 7 - - - - - - - 17.4 1013.8 -
24/06:00pm WSW 10 13 - - - - - - - 17.7 1013.2 -
24/05:30pm WSW 13 16 - - - - - - - 17.8 1012.7 -
24/05:00pm WSW 13 16 - - - - - - - 18.2 1012.5 -
24/04:30pm W 14 17 - - - - - - - 18.4 1012.2 -
24/04:00pm W 14 17 - - - - - - - 18.2 1012.0 -
24/03:30pm WSW 16 19 - - - - - - - 18.3 1011.6 -
24/03:00pm WSW 14 18 - - - - - - - 18.2 1011.5 -
24/02:30pm W 13 16 - - - - - - - 18.3 1011.7 -
24/02:00pm W 9 13 - - - - - - - 18.0 1012.3 -
24/01:30pm W 7 11 - - - - - - - 17.9 1012.7 -
24/01:00pm WNW 4 6 - - - - - - - 17.8 1013.5 -
24/12:30pm W 8 11 - - - - - - - 17.1 1014.1 -
24/12:00pm WSW 8 13 - - - - - - - 16.4 1014.4 -
24/11:30am SW 9 15 - - - - - - - 16.1 1014.9 -
24/11:00am SW 9 13 - - - - - - - 15.6 1015.3 -
24/10:30am SW 14 18 - - - - - - - 15.1 1015.5 -
24/10:00am SW 12 17 - - - - - - - 14.9 1015.7 -
24/09:30am WSW 7 12 - - - - - - - 13.5 1016.0 -
24/09:00am WSW 10 13 - - - - - - - 12.8 1015.8 -
24/08:30am SW 11 14 - - - - - - - 12.4 1015.4 -
24/08:00am WSW 13 15 - - - - - - - 12.0 1015.2 -
24/07:30am WSW 15 18 - - - - - - - 12.1 1014.7 -
24/07:00am WSW 11 13 - - - - - - - 11.9 1014.5 -
24/06:30am WSW 11 13 - - - - - - - 11.9 1014.5 -
24/06:00am W 8 12 - - - - - - - 11.9 1014.3 -
24/05:30am WSW 12 14 - - - - - - - 12.4 1013.8 -
24/05:00am WSW 12 15 - - - - - - - 12.0 1013.4 -
24/04:30am WSW 12 15 - - - - - - - 12.1 1013.4 -
24/04:00am WSW 16 18 - - - - - - - 12.2 1013.1 -
24/03:30am WSW 16 19 - - - - - - - 12.4 1013.1 -
24/03:00am WSW 14 18 - - - - - - - 12.8 1013.2 -
24/02:30am WSW 16 18 - - - - - - - 12.5 1012.6 -
24/02:00am WSW 14 18 - - - - - - - 12.7 1012.9 -
24/01:30am W 15 17 - - - - - - - 12.6 1014.3 -
24/01:00am W 15 18 - - - - - - - 12.8 1014.1 -
24/12:30am W 12 15 - - - - - - - 13.1 1014.8 -
24/12:00am W 10 12 - - - - - - - 13.4 1014.9 -
 
Date/Time
EST
Wind Sea
Height
m
Swell Vis
km
Cloud Weather Temp
°C
Press
hPa
Rain since
9am
mm
Dir  Spd
kts
Gust
kts
Height
m
Period
s
Dir
23/11:30pm W 8 10 - - - - - - - 13.4 1014.4 -
23/11:00pm W 10 13 - - - - - - - 13.6 1014.9 -
23/10:57pm W 9 12 - - - - - - - 13.8 1015.0 -
23/10:30pm W 8 10 - - - - - - - 13.0 1012.9 -
23/10:00pm WNW 7 14 - - - - - - - 13.3 1013.6 -
23/09:58pm WNW 9 14 - - - - - - - 13.0 1013.7 -
23/09:49pm W 10 13 - - - - - - - 13.7 1015.9 -
23/09:30pm W 9 13 - - - - - - - 13.2 1013.8 -
23/09:00pm W 10 12 - - - - - - - 13.1 1015.1 -
23/08:30pm W 10 13 - - - - - - - 13.2 1015.5 -
23/08:00pm W 9 11 - - - - - - - 13.0 1014.5 -
23/07:30pm W 9 13 - - - - - - - 13.0 1014.9 -
23/07:00pm WNW 11 14 - - - - - - - 13.0 1014.1 -
23/06:34pm WNW 4 10 - - - - - - - 12.9 1013.9 -
23/06:30pm WNW 3 5 - - - - - - - 12.6 1011.8 -
23/06:28pm W 3 8 - - - - - - - 12.7 1011.5 -
23/06:00pm W 10 13 - - - - - - - 12.9 1013.5 -
23/05:30pm W 14 19 - - - - - - - 13.2 1014.1 -
23/05:29pm W 13 18 - - - - - - - 13.4 1013.9 -
23/05:00pm W 7 8 - - - - - - - 12.6 1011.7 -
23/04:30pm W 11 14 - - - - - - - 12.7 1012.6 -
23/04:00pm WNW 11 14 - - - - - - - 12.8 1014.5 -
23/03:30pm W 6 8 - - - - - - - 12.0 1013.1 -
23/03:00pm W 6 8 - - - - - - - 12.0 1013.0 -
23/02:30pm WSW 7 10 - - - - - - - 12.1 1013.0 -

Other formats

Comma delimited format used in spreadsheet applications
http://www.bom.gov.au/fwo/IDQ60701/IDQ60701.94378.axf

JavaScript Object Notation format (JSON) in row-major order
http://www.bom.gov.au/fwo/IDQ60701/IDQ60701.94378.json

Data quality

Most of these data are generated automatically and are frequently updated. Quality checks on data are not normally performed. It is possible for incorrect values to appear. Refer to information at About Latest Weather Observations and please check the disclaimer before using these data.